sensor_id;sensor_type;location;lat;lon;timestamp;P1;durP1;ratioP1;P2;durP2;ratioP2
48897;SDS011;34713;50.038;20.000;2024-03-17T00:01:02;12.00;;;8.90;;
48897;SDS011;34713;50.038;20.000;2024-03-17T00:03:49;11.90;;;8.50;;
48897;SDS011;34713;50.038;20.000;2024-03-17T00:06:15;12.10;;;8.50;;
48897;SDS011;34713;50.038;20.000;2024-03-17T00:08:43;13.80;;;9.00;;
48897;SDS011;34713;50.038;20.000;2024-03-17T00:11:09;10.60;;;8.00;;
48897;SDS011;34713;50.038;20.000;2024-03-17T00:13:36;12.00;;;8.20;;
48897;SDS011;34713;50.038;20.000;2024-03-17T00:16:02;10.20;;;8.20;;
48897;SDS011;34713;50.038;20.000;2024-03-17T00:18:29;15.20;;;8.20;;
48897;SDS011;34713;50.038;20.000;2024-03-17T00:20:56;12.40;;;8.50;;
48897;SDS011;34713;50.038;20.000;2024-03-17T00:23:22;13.00;;;8.40;;
48897;SDS011;34713;50.038;20.000;2024-03-17T00:25:49;11.10;;;8.10;;
48897;SDS011;34713;50.038;20.000;2024-03-17T00:28:16;11.80;;;8.00;;
48897;SDS011;34713;50.038;20.000;2024-03-17T00:30:43;11.20;;;8.50;;
48897;SDS011;34713;50.038;20.000;2024-03-17T00:33:09;14.10;;;9.70;;
48897;SDS011;34713;50.038;20.000;2024-03-17T00:35:36;13.00;;;8.40;;
48897;SDS011;34713;50.038;20.000;2024-03-17T00:38:02;12.80;;;9.00;;
48897;SDS011;34713;50.038;20.000;2024-03-17T00:40:37;12.70;;;9.90;;
48897;SDS011;34713;50.038;20.000;2024-03-17T00:43:04;14.60;;;10.20;;
48897;SDS011;34713;50.038;20.000;2024-03-17T00:45:30;13.10;;;9.30;;
48897;SDS011;34713;50.038;20.000;2024-03-17T00:47:57;11.00;;;7.10;;
48897;SDS011;34713;50.038;20.000;2024-03-17T00:50:23;4.50;;;2.70;;
48897;SDS011;34713;50.038;20.000;2024-03-17T00:52:49;3.30;;;1.70;;
48897;SDS011;34713;50.038;20.000;2024-03-17T00:55:16;2.10;;;1.10;;
48897;SDS011;34713;50.038;20.000;2024-03-17T00:57:42;2.70;;;1.30;;
48897;SDS011;34713;50.038;20.000;2024-03-17T01:00:09;1.50;;;1.00;;
48897;SDS011;34713;50.038;20.000;2024-03-17T01:02:38;4.20;;;1.10;;
48897;SDS011;34713;50.038;20.000;2024-03-17T01:05:06;1.80;;;1.10;;
48897;SDS011;34713;50.038;20.000;2024-03-17T01:07:33;1.20;;;0.90;;
48897;SDS011;34713;50.038;20.000;2024-03-17T01:10:00;1.90;;;1.00;;
48897;SDS011;34713;50.038;20.000;2024-03-17T01:12:26;2.20;;;1.10;;
48897;SDS011;34713;50.038;20.000;2024-03-17T01:14:53;1.40;;;0.90;;
48897;SDS011;34713;50.038;20.000;2024-03-17T01:17:19;1.60;;;1.00;;
48897;SDS011;34713;50.038;20.000;2024-03-17T01:19:46;2.40;;;1.20;;
48897;SDS011;34713;50.038;20.000;2024-03-17T01:22:12;1.80;;;1.20;;
48897;SDS011;34713;50.038;20.000;2024-03-17T01:24:38;2.20;;;1.30;;
48897;SDS011;34713;50.038;20.000;2024-03-17T01:27:08;3.10;;;1.30;;
48897;SDS011;34713;50.038;20.000;2024-03-17T01:29:40;1.40;;;1.00;;
48897;SDS011;34713;50.038;20.000;2024-03-17T01:32:06;3.00;;;1.40;;
48897;SDS011;34713;50.038;20.000;2024-03-17T01:34:33;3.00;;;1.40;;
48897;SDS011;34713;50.038;20.000;2024-03-17T01:36:59;2.80;;;1.40;;
48897;SDS011;34713;50.038;20.000;2024-03-17T01:39:26;3.80;;;1.70;;
48897;SDS011;34713;50.038;20.000;2024-03-17T01:41:52;2.20;;;1.40;;
48897;SDS011;34713;50.038;20.000;2024-03-17T01:44:22;4.10;;;1.60;;
48897;SDS011;34713;50.038;20.000;2024-03-17T01:46:50;2.60;;;1.40;;
48897;SDS011;34713;50.038;20.000;2024-03-17T01:49:17;5.60;;;1.60;;
48897;SDS011;34713;50.038;20.000;2024-03-17T01:51:47;3.30;;;1.70;;
48897;SDS011;34713;50.038;20.000;2024-03-17T01:54:14;3.00;;;2.00;;
48897;SDS011;34713;50.038;20.000;2024-03-17T01:56:41;2.70;;;1.70;;
48897;SDS011;34713;50.038;20.000;2024-03-17T01:59:09;5.30;;;2.60;;
48897;SDS011;34713;50.038;20.000;2024-03-17T02:01:36;5.00;;;2.30;;
48897;SDS011;34713;50.038;20.000;2024-03-17T02:04:04;4.00;;;2.40;;
48897;SDS011;34713;50.038;20.000;2024-03-17T02:06:31;4.60;;;2.50;;
48897;SDS011;34713;50.038;20.000;2024-03-17T02:08:57;3.90;;;2.50;;
48897;SDS011;34713;50.038;20.000;2024-03-17T02:11:27;6.00;;;3.10;;
48897;SDS011;34713;50.038;20.000;2024-03-17T02:13:55;6.00;;;3.40;;
48897;SDS011;34713;50.038;20.000;2024-03-17T02:16:23;9.00;;;3.40;;
48897;SDS011;34713;50.038;20.000;2024-03-17T02:18:53;6.60;;;4.10;;
48897;SDS011;34713;50.038;20.000;2024-03-17T02:21:21;6.70;;;3.60;;
48897;SDS011;34713;50.038;20.000;2024-03-17T02:23:49;9.00;;;3.40;;
48897;SDS011;34713;50.038;20.000;2024-03-17T02:26:15;7.70;;;3.50;;
48897;SDS011;34713;50.038;20.000;2024-03-17T02:28:42;6.80;;;3.50;;
48897;SDS011;34713;50.038;20.000;2024-03-17T02:31:10;7.60;;;3.50;;
48897;SDS011;34713;50.038;20.000;2024-03-17T02:33:38;7.80;;;3.60;;
48897;SDS011;34713;50.038;20.000;2024-03-17T02:36:07;5.90;;;3.10;;
48897;SDS011;34713;50.038;20.000;2024-03-17T02:38:33;7.20;;;3.10;;
48897;SDS011;34713;50.038;20.000;2024-03-17T02:41:18;8.40;;;3.20;;
48897;SDS011;34713;50.038;20.000;2024-03-17T02:43:45;7.00;;;3.40;;
48897;SDS011;34713;50.038;20.000;2024-03-17T02:46:12;5.30;;;2.70;;
48897;SDS011;34713;50.038;20.000;2024-03-17T02:48:40;6.50;;;2.70;;
48897;SDS011;34713;50.038;20.000;2024-03-17T02:51:16;6.70;;;3.20;;
48897;SDS011;34713;50.038;20.000;2024-03-17T02:53:44;7.40;;;2.60;;
48897;SDS011;34713;50.038;20.000;2024-03-17T02:56:11;6.40;;;2.50;;
48897;SDS011;34713;50.038;20.000;2024-03-17T02:58:38;8.10;;;2.90;;
48897;SDS011;34713;50.038;20.000;2024-03-17T03:01:06;9.20;;;2.50;;
48897;SDS011;34713;50.038;20.000;2024-03-17T03:03:32;9.00;;;2.70;;
48897;SDS011;34713;50.038;20.000;2024-03-17T03:05:59;5.30;;;2.30;;
48897;SDS011;34713;50.038;20.000;2024-03-17T03:08:30;6.90;;;2.40;;
48897;SDS011;34713;50.038;20.000;2024-03-17T03:10:57;5.20;;;2.70;;
48897;SDS011;34713;50.038;20.000;2024-03-17T03:13:23;6.20;;;2.30;;
48897;SDS011;34713;50.038;20.000;2024-03-17T03:15:50;5.90;;;2.10;;
48897;SDS011;34713;50.038;20.000;2024-03-17T03:18:17;8.80;;;2.80;;
48897;SDS011;34713;50.038;20.000;2024-03-17T03:20:43;6.00;;;2.00;;
48897;SDS011;34713;50.038;20.000;2024-03-17T03:23:16;6.30;;;2.20;;
48897;SDS011;34713;50.038;20.000;2024-03-17T03:25:42;8.00;;;2.40;;
48897;SDS011;34713;50.038;20.000;2024-03-17T03:28:09;5.10;;;2.00;;
48897;SDS011;34713;50.038;20.000;2024-03-17T03:30:36;4.20;;;1.90;;
48897;SDS011;34713;50.038;20.000;2024-03-17T03:33:02;7.90;;;2.40;;
48897;SDS011;34713;50.038;20.000;2024-03-17T03:35:31;4.90;;;2.40;;
48897;SDS011;34713;50.038;20.000;2024-03-17T03:37:58;5.40;;;2.90;;
48897;SDS011;34713;50.038;20.000;2024-03-17T03:40:26;7.40;;;2.90;;
48897;SDS011;34713;50.038;20.000;2024-03-17T03:42:53;8.50;;;2.90;;
48897;SDS011;34713;50.038;20.000;2024-03-17T03:45:19;11.70;;;3.70;;
48897;SDS011;34713;50.038;20.000;2024-03-17T03:47:49;9.30;;;3.70;;
48897;SDS011;34713;50.038;20.000;2024-03-17T03:50:18;9.10;;;5.10;;
48897;SDS011;34713;50.038;20.000;2024-03-17T03:52:47;10.40;;;6.50;;
48897;SDS011;34713;50.038;20.000;2024-03-17T03:55:15;11.30;;;6.10;;
48897;SDS011;34713;50.038;20.000;2024-03-17T03:57:43;11.60;;;5.70;;
48897;SDS011;34713;50.038;20.000;2024-03-17T04:00:14;12.30;;;5.30;;
48897;SDS011;34713;50.038;20.000;2024-03-17T04:02:48;11.10;;;5.10;;
48897;SDS011;34713;50.038;20.000;2024-03-17T04:05:16;9.70;;;4.30;;
48897;SDS011;34713;50.038;20.000;2024-03-17T04:07:42;12.30;;;4.90;;
48897;SDS011;34713;50.038;20.000;2024-03-17T04:10:12;9.30;;;4.50;;
48897;SDS011;34713;50.038;20.000;2024-03-17T04:12:39;11.70;;;5.60;;
48897;SDS011;34713;50.038;20.000;2024-03-17T04:15:06;8.00;;;5.10;;
48897;SDS011;34713;50.038;20.000;2024-03-17T04:17:33;13.00;;;5.40;;
48897;SDS011;34713;50.038;20.000;2024-03-17T04:19:59;13.50;;;6.00;;
48897;SDS011;34713;50.038;20.000;2024-03-17T04:22:26;10.60;;;5.90;;
48897;SDS011;34713;50.038;20.000;2024-03-17T04:24:53;13.50;;;6.30;;
48897;SDS011;34713;50.038;20.000;2024-03-17T04:27:20;11.60;;;6.30;;
48897;SDS011;34713;50.038;20.000;2024-03-17T04:29:47;10.50;;;6.10;;
48897;SDS011;34713;50.038;20.000;2024-03-17T04:32:16;13.10;;;7.20;;
48897;SDS011;34713;50.038;20.000;2024-03-17T04:34:43;11.10;;;7.00;;
48897;SDS011;34713;50.038;20.000;2024-03-17T04:37:09;12.00;;;7.30;;
48897;SDS011;34713;50.038;20.000;2024-03-17T04:39:39;13.40;;;7.10;;
48897;SDS011;34713;50.038;20.000;2024-03-17T04:42:06;13.10;;;7.60;;
48897;SDS011;34713;50.038;20.000;2024-03-17T04:44:35;13.00;;;7.60;;
48897;SDS011;34713;50.038;20.000;2024-03-17T04:47:01;12.40;;;7.80;;
48897;SDS011;34713;50.038;20.000;2024-03-17T04:49:34;11.50;;;7.80;;
48897;SDS011;34713;50.038;20.000;2024-03-17T04:52:09;10.90;;;7.70;;
48897;SDS011;34713;50.038;20.000;2024-03-17T04:54:36;12.70;;;8.50;;
48897;SDS011;34713;50.038;20.000;2024-03-17T04:57:02;12.80;;;7.90;;
48897;SDS011;34713;50.038;20.000;2024-03-17T04:59:29;12.20;;;8.20;;
48897;SDS011;34713;50.038;20.000;2024-03-17T05:01:55;15.00;;;8.00;;
48897;SDS011;34713;50.038;20.000;2024-03-17T05:04:21;13.50;;;8.10;;
48897;SDS011;34713;50.038;20.000;2024-03-17T05:06:48;14.50;;;7.40;;
48897;SDS011;34713;50.038;20.000;2024-03-17T05:09:16;14.10;;;7.70;;
48897;SDS011;34713;50.038;20.000;2024-03-17T05:11:43;12.90;;;7.40;;
48897;SDS011;34713;50.038;20.000;2024-03-17T05:14:09;12.80;;;6.50;;
48897;SDS011;34713;50.038;20.000;2024-03-17T05:16:36;12.20;;;6.00;;
48897;SDS011;34713;50.038;20.000;2024-03-17T05:19:03;9.80;;;5.70;;
48897;SDS011;34713;50.038;20.000;2024-03-17T05:21:30;12.90;;;5.30;;
48897;SDS011;34713;50.038;20.000;2024-03-17T05:23:57;11.80;;;5.00;;
48897;SDS011;34713;50.038;20.000;2024-03-17T05:26:24;10.20;;;4.80;;
48897;SDS011;34713;50.038;20.000;2024-03-17T05:28:50;5.90;;;3.30;;
48897;SDS011;34713;50.038;20.000;2024-03-17T05:31:17;8.50;;;3.20;;
48897;SDS011;34713;50.038;20.000;2024-03-17T05:33:44;9.70;;;4.00;;
48897;SDS011;34713;50.038;20.000;2024-03-17T05:36:10;10.00;;;3.30;;
48897;SDS011;34713;50.038;20.000;2024-03-17T05:38:37;10.00;;;3.30;;
48897;SDS011;34713;50.038;20.000;2024-03-17T05:41:04;11.00;;;3.10;;
48897;SDS011;34713;50.038;20.000;2024-03-17T05:43:34;9.30;;;2.90;;
48897;SDS011;34713;50.038;20.000;2024-03-17T05:46:04;13.30;;;3.80;;
48897;SDS011;34713;50.038;20.000;2024-03-17T05:48:32;9.00;;;2.80;;
48897;SDS011;34713;50.038;20.000;2024-03-17T05:51:02;10.20;;;2.80;;
48897;SDS011;34713;50.038;20.000;2024-03-17T05:53:29;6.50;;;2.30;;
48897;SDS011;34713;50.038;20.000;2024-03-17T05:55:58;9.40;;;2.70;;
48897;SDS011;34713;50.038;20.000;2024-03-17T05:58:25;10.10;;;2.40;;
48897;SDS011;34713;50.038;20.000;2024-03-17T06:00:52;9.20;;;2.40;;
48897;SDS011;34713;50.038;20.000;2024-03-17T06:03:18;6.20;;;2.00;;
48897;SDS011;34713;50.038;20.000;2024-03-17T06:05:45;7.40;;;2.50;;
48897;SDS011;34713;50.038;20.000;2024-03-17T06:08:12;7.90;;;2.40;;
48897;SDS011;34713;50.038;20.000;2024-03-17T06:10:42;6.90;;;2.20;;
48897;SDS011;34713;50.038;20.000;2024-03-17T06:13:09;7.20;;;2.50;;
48897;SDS011;34713;50.038;20.000;2024-03-17T06:15:39;7.60;;;3.00;;
48897;SDS011;34713;50.038;20.000;2024-03-17T06:18:06;6.80;;;2.50;;
48897;SDS011;34713;50.038;20.000;2024-03-17T06:20:41;6.50;;;2.20;;
48897;SDS011;34713;50.038;20.000;2024-03-17T06:23:11;7.50;;;2.70;;
48897;SDS011;34713;50.038;20.000;2024-03-17T06:25:45;8.50;;;2.60;;
48897;SDS011;34713;50.038;20.000;2024-03-17T06:28:13;5.70;;;2.40;;
48897;SDS011;34713;50.038;20.000;2024-03-17T06:30:44;6.90;;;2.20;;
48897;SDS011;34713;50.038;20.000;2024-03-17T06:33:16;5.30;;;1.90;;
48897;SDS011;34713;50.038;20.000;2024-03-17T06:35:45;7.10;;;2.40;;
48897;SDS011;34713;50.038;20.000;2024-03-17T06:38:15;6.60;;;2.10;;
48897;SDS011;34713;50.038;20.000;2024-03-17T06:40:47;5.00;;;1.90;;
48897;SDS011;34713;50.038;20.000;2024-03-17T06:43:14;7.60;;;2.30;;
48897;SDS011;34713;50.038;20.000;2024-03-17T06:45:41;5.50;;;2.10;;
48897;SDS011;34713;50.038;20.000;2024-03-17T06:48:07;6.60;;;2.00;;
48897;SDS011;34713;50.038;20.000;2024-03-17T06:50:34;5.90;;;1.90;;
48897;SDS011;34713;50.038;20.000;2024-03-17T06:53:00;6.70;;;2.20;;
48897;SDS011;34713;50.038;20.000;2024-03-17T06:55:26;5.30;;;1.60;;
48897;SDS011;34713;50.038;20.000;2024-03-17T06:57:54;8.70;;;3.10;;
48897;SDS011;34713;50.038;20.000;2024-03-17T07:00:20;6.10;;;2.60;;
48897;SDS011;34713;50.038;20.000;2024-03-17T07:02:51;7.00;;;2.10;;
48897;SDS011;34713;50.038;20.000;2024-03-17T07:05:17;5.70;;;2.30;;
48897;SDS011;34713;50.038;20.000;2024-03-17T07:07:45;5.60;;;2.60;;
48897;SDS011;34713;50.038;20.000;2024-03-17T07:10:11;6.70;;;2.40;;
48897;SDS011;34713;50.038;20.000;2024-03-17T07:12:38;6.60;;;2.30;;
48897;SDS011;34713;50.038;20.000;2024-03-17T07:15:05;7.10;;;2.60;;
48897;SDS011;34713;50.038;20.000;2024-03-17T07:17:32;5.60;;;2.60;;
48897;SDS011;34713;50.038;20.000;2024-03-17T07:19:59;7.00;;;2.70;;
48897;SDS011;34713;50.038;20.000;2024-03-17T07:22:26;7.40;;;3.10;;
48897;SDS011;34713;50.038;20.000;2024-03-17T07:24:52;8.30;;;3.10;;
48897;SDS011;34713;50.038;20.000;2024-03-17T07:27:22;7.10;;;3.20;;
48897;SDS011;34713;50.038;20.000;2024-03-17T07:29:49;7.00;;;3.40;;
48897;SDS011;34713;50.038;20.000;2024-03-17T07:32:15;6.90;;;2.90;;
48897;SDS011;34713;50.038;20.000;2024-03-17T07:34:42;5.60;;;3.00;;
48897;SDS011;34713;50.038;20.000;2024-03-17T07:37:08;6.50;;;2.70;;
48897;SDS011;34713;50.038;20.000;2024-03-17T07:39:35;7.10;;;2.90;;
48897;SDS011;34713;50.038;20.000;2024-03-17T07:42:02;6.40;;;2.40;;
48897;SDS011;34713;50.038;20.000;2024-03-17T07:44:28;5.50;;;2.30;;
48897;SDS011;34713;50.038;20.000;2024-03-17T07:47:00;4.80;;;2.50;;
48897;SDS011;34713;50.038;20.000;2024-03-17T07:49:27;6.50;;;2.60;;
48897;SDS011;34713;50.038;20.000;2024-03-17T07:51:53;6.00;;;2.40;;
48897;SDS011;34713;50.038;20.000;2024-03-17T07:54:20;5.70;;;2.00;;
48897;SDS011;34713;50.038;20.000;2024-03-17T07:56:47;5.40;;;2.20;;
48897;SDS011;34713;50.038;20.000;2024-03-17T07:59:13;4.70;;;1.80;;
48897;SDS011;34713;50.038;20.000;2024-03-17T08:01:43;6.50;;;2.10;;
48897;SDS011;34713;50.038;20.000;2024-03-17T08:04:10;9.00;;;2.50;;
48897;SDS011;34713;50.038;20.000;2024-03-17T08:06:40;8.70;;;2.80;;
48897;SDS011;34713;50.038;20.000;2024-03-17T08:09:08;6.30;;;2.70;;
48897;SDS011;34713;50.038;20.000;2024-03-17T08:11:37;7.10;;;2.30;;
48897;SDS011;34713;50.038;20.000;2024-03-17T08:14:04;7.30;;;2.80;;
48897;SDS011;34713;50.038;20.000;2024-03-17T08:16:31;7.90;;;2.30;;
48897;SDS011;34713;50.038;20.000;2024-03-17T08:18:58;5.00;;;2.00;;
48897;SDS011;34713;50.038;20.000;2024-03-17T08:21:24;7.90;;;2.30;;
48897;SDS011;34713;50.038;20.000;2024-03-17T08:23:52;8.50;;;2.20;;
48897;SDS011;34713;50.038;20.000;2024-03-17T08:26:18;7.90;;;2.50;;
48897;SDS011;34713;50.038;20.000;2024-03-17T08:28:45;6.70;;;2.30;;
48897;SDS011;34713;50.038;20.000;2024-03-17T08:31:12;6.70;;;2.40;;
48897;SDS011;34713;50.038;20.000;2024-03-17T08:33:41;5.00;;;1.90;;
48897;SDS011;34713;50.038;20.000;2024-03-17T08:36:08;6.20;;;2.00;;
48897;SDS011;34713;50.038;20.000;2024-03-17T08:38:35;7.40;;;2.10;;
48897;SDS011;34713;50.038;20.000;2024-03-17T08:41:06;5.50;;;2.10;;
48897;SDS011;34713;50.038;20.000;2024-03-17T08:43:33;5.70;;;2.40;;
48897;SDS011;34713;50.038;20.000;2024-03-17T08:46:04;4.20;;;2.20;;
48897;SDS011;34713;50.038;20.000;2024-03-17T08:48:35;5.50;;;2.30;;
48897;SDS011;34713;50.038;20.000;2024-03-17T08:51:03;4.00;;;2.20;;
48897;SDS011;34713;50.038;20.000;2024-03-17T08:53:30;7.50;;;2.60;;
48897;SDS011;34713;50.038;20.000;2024-03-17T08:55:57;7.50;;;2.90;;
48897;SDS011;34713;50.038;20.000;2024-03-17T08:58:24;6.40;;;2.70;;
48897;SDS011;34713;50.038;20.000;2024-03-17T09:00:52;7.50;;;2.30;;
48897;SDS011;34713;50.038;20.000;2024-03-17T09:03:18;5.60;;;2.60;;
48897;SDS011;34713;50.038;20.000;2024-03-17T09:05:46;8.70;;;2.40;;
48897;SDS011;34713;50.038;20.000;2024-03-17T09:08:23;4.80;;;2.30;;
48897;SDS011;34713;50.038;20.000;2024-03-17T09:10:51;5.30;;;2.40;;
48897;SDS011;34713;50.038;20.000;2024-03-17T09:13:22;8.30;;;2.80;;
48897;SDS011;34713;50.038;20.000;2024-03-17T09:15:55;5.00;;;2.40;;
48897;SDS011;34713;50.038;20.000;2024-03-17T09:18:23;5.10;;;2.20;;
48897;SDS011;34713;50.038;20.000;2024-03-17T09:21:02;5.50;;;2.30;;
48897;SDS011;34713;50.038;20.000;2024-03-17T09:23:36;5.40;;;2.10;;
48897;SDS011;34713;50.038;20.000;2024-03-17T09:26:05;5.90;;;2.20;;
48897;SDS011;34713;50.038;20.000;2024-03-17T09:28:34;7.40;;;2.60;;
48897;SDS011;34713;50.038;20.000;2024-03-17T09:31:02;5.80;;;2.50;;
48897;SDS011;34713;50.038;20.000;2024-03-17T09:33:31;6.50;;;2.60;;
48897;SDS011;34713;50.038;20.000;2024-03-17T09:36:04;7.30;;;2.70;;
48897;SDS011;34713;50.038;20.000;2024-03-17T09:38:34;8.20;;;2.40;;
48897;SDS011;34713;50.038;20.000;2024-03-17T09:41:01;5.40;;;2.40;;
48897;SDS011;34713;50.038;20.000;2024-03-17T09:43:35;7.10;;;2.30;;
48897;SDS011;34713;50.038;20.000;2024-03-17T09:46:02;4.90;;;1.80;;
48897;SDS011;34713;50.038;20.000;2024-03-17T09:48:29;5.00;;;2.20;;
48897;SDS011;34713;50.038;20.000;2024-03-17T09:50:57;4.00;;;2.00;;
48897;SDS011;34713;50.038;20.000;2024-03-17T09:53:25;6.50;;;2.70;;
48897;SDS011;34713;50.038;20.000;2024-03-17T09:55:56;8.70;;;2.00;;
48897;SDS011;34713;50.038;20.000;2024-03-17T09:58:23;6.80;;;2.00;;
48897;SDS011;34713;50.038;20.000;2024-03-17T10:00:50;5.70;;;2.40;;
48897;SDS011;34713;50.038;20.000;2024-03-17T10:06:14;6.80;;;2.60;;
48897;SDS011;34713;50.038;20.000;2024-03-17T10:11:09;11.10;;;2.70;;
48897;SDS011;34713;50.038;20.000;2024-03-17T10:13:37;11.40;;;2.90;;
48897;SDS011;34713;50.038;20.000;2024-03-17T10:16:03;4.10;;;2.00;;
48897;SDS011;34713;50.038;20.000;2024-03-17T10:18:30;7.20;;;2.20;;
48897;SDS011;34713;50.038;20.000;2024-03-17T10:20:57;7.10;;;2.00;;
48897;SDS011;34713;50.038;20.000;2024-03-17T10:23:25;7.40;;;1.90;;
48897;SDS011;34713;50.038;20.000;2024-03-17T10:25:51;5.00;;;1.60;;
48897;SDS011;34713;50.038;20.000;2024-03-17T10:28:17;5.40;;;1.60;;
48897;SDS011;34713;50.038;20.000;2024-03-17T10:30:59;6.50;;;2.10;;
48897;SDS011;34713;50.038;20.000;2024-03-17T10:33:26;5.00;;;1.60;;
48897;SDS011;34713;50.038;20.000;2024-03-17T10:36:00;4.20;;;1.70;;
48897;SDS011;34713;50.038;20.000;2024-03-17T10:38:27;8.40;;;1.80;;
48897;SDS011;34713;50.038;20.000;2024-03-17T10:40:54;6.20;;;1.80;;
48897;SDS011;34713;50.038;20.000;2024-03-17T10:43:20;7.50;;;2.00;;
48897;SDS011;34713;50.038;20.000;2024-03-17T10:45:54;4.60;;;1.70;;
48897;SDS011;34713;50.038;20.000;2024-03-17T10:48:20;6.00;;;1.60;;
48897;SDS011;34713;50.038;20.000;2024-03-17T10:50:48;5.00;;;1.90;;
48897;SDS011;34713;50.038;20.000;2024-03-17T10:53:17;4.50;;;1.60;;
48897;SDS011;34713;50.038;20.000;2024-03-17T10:55:55;5.10;;;1.80;;
48897;SDS011;34713;50.038;20.000;2024-03-17T11:01:03;4.80;;;1.70;;
48897;SDS011;34713;50.038;20.000;2024-03-17T11:03:32;7.60;;;2.00;;
48897;SDS011;34713;50.038;20.000;2024-03-17T11:06:00;6.30;;;1.90;;
48897;SDS011;34713;50.038;20.000;2024-03-17T11:08:30;8.50;;;2.30;;
48897;SDS011;34713;50.038;20.000;2024-03-17T11:10:59;7.30;;;2.30;;
48897;SDS011;34713;50.038;20.000;2024-03-17T11:13:27;5.60;;;2.10;;
48897;SDS011;34713;50.038;20.000;2024-03-17T11:15:54;5.20;;;1.70;;
48897;SDS011;34713;50.038;20.000;2024-03-17T11:18:31;4.70;;;2.00;;
48897;SDS011;34713;50.038;20.000;2024-03-17T11:21:03;5.90;;;2.10;;
48897;SDS011;34713;50.038;20.000;2024-03-17T11:23:38;8.20;;;2.10;;
48897;SDS011;34713;50.038;20.000;2024-03-17T11:26:05;6.40;;;2.10;;
48897;SDS011;34713;50.038;20.000;2024-03-17T11:36:56;3.30;;;1.50;;
48897;SDS011;34713;50.038;20.000;2024-03-17T11:42:25;5.20;;;1.60;;
48897;SDS011;34713;50.038;20.000;2024-03-17T11:44:59;6.70;;;1.80;;
48897;SDS011;34713;50.038;20.000;2024-03-17T11:50:04;4.90;;;1.60;;
48897;SDS011;34713;50.038;20.000;2024-03-17T11:52:31;3.40;;;1.60;;
48897;SDS011;34713;50.038;20.000;2024-03-17T11:54:58;3.30;;;1.40;;
48897;SDS011;34713;50.038;20.000;2024-03-17T11:57:25;7.60;;;1.50;;
48897;SDS011;34713;50.038;20.000;2024-03-17T11:59:53;5.80;;;1.50;;
48897;SDS011;34713;50.038;20.000;2024-03-17T12:02:21;4.60;;;1.60;;
48897;SDS011;34713;50.038;20.000;2024-03-17T12:04:49;4.70;;;1.40;;
48897;SDS011;34713;50.038;20.000;2024-03-17T12:07:16;9.40;;;2.00;;
48897;SDS011;34713;50.038;20.000;2024-03-17T12:09:44;3.40;;;1.50;;
48897;SDS011;34713;50.038;20.000;2024-03-17T12:12:18;5.00;;;1.50;;
48897;SDS011;34713;50.038;20.000;2024-03-17T12:14:45;5.60;;;2.10;;
48897;SDS011;34713;50.038;20.000;2024-03-17T12:17:14;6.70;;;1.60;;
48897;SDS011;34713;50.038;20.000;2024-03-17T12:19:44;5.60;;;1.30;;
48897;SDS011;34713;50.038;20.000;2024-03-17T12:22:17;4.40;;;1.40;;
48897;SDS011;34713;50.038;20.000;2024-03-17T12:24:47;4.70;;;1.80;;
48897;SDS011;34713;50.038;20.000;2024-03-17T12:27:18;7.40;;;1.80;;
48897;SDS011;34713;50.038;20.000;2024-03-17T12:29:49;5.20;;;1.60;;
48897;SDS011;34713;50.038;20.000;2024-03-17T12:32:20;4.60;;;1.80;;
48897;SDS011;34713;50.038;20.000;2024-03-17T12:34:51;5.00;;;1.80;;
48897;SDS011;34713;50.038;20.000;2024-03-17T12:37:25;6.90;;;1.70;;
48897;SDS011;34713;50.038;20.000;2024-03-17T12:40:01;6.30;;;1.80;;
48897;SDS011;34713;50.038;20.000;2024-03-17T12:42:29;5.30;;;1.90;;
48897;SDS011;34713;50.038;20.000;2024-03-17T12:44:56;6.20;;;1.90;;
48897;SDS011;34713;50.038;20.000;2024-03-17T12:47:24;5.70;;;1.60;;
48897;SDS011;34713;50.038;20.000;2024-03-17T12:52:19;5.20;;;1.60;;
48897;SDS011;34713;50.038;20.000;2024-03-17T12:57:52;6.10;;;2.00;;
48897;SDS011;34713;50.038;20.000;2024-03-17T13:00:37;5.60;;;2.20;;
48897;SDS011;34713;50.038;20.000;2024-03-17T13:03:07;4.10;;;1.70;;
48897;SDS011;34713;50.038;20.000;2024-03-17T13:05:34;5.10;;;1.50;;
48897;SDS011;34713;50.038;20.000;2024-03-17T13:08:01;5.20;;;2.10;;
48897;SDS011;34713;50.038;20.000;2024-03-17T13:10:28;5.80;;;1.60;;
48897;SDS011;34713;50.038;20.000;2024-03-17T13:13:05;3.70;;;1.80;;
48897;SDS011;34713;50.038;20.000;2024-03-17T13:18:03;6.80;;;1.90;;
48897;SDS011;34713;50.038;20.000;2024-03-17T13:20:33;5.30;;;1.50;;
48897;SDS011;34713;50.038;20.000;2024-03-17T13:23:00;5.40;;;1.50;;
48897;SDS011;34713;50.038;20.000;2024-03-17T13:25:28;5.10;;;1.70;;
48897;SDS011;34713;50.038;20.000;2024-03-17T13:28:03;4.60;;;1.90;;
48897;SDS011;34713;50.038;20.000;2024-03-17T13:30:30;4.80;;;1.20;;
48897;SDS011;34713;50.038;20.000;2024-03-17T13:32:57;5.60;;;1.80;;
48897;SDS011;34713;50.038;20.000;2024-03-17T13:35:27;5.20;;;2.00;;
48897;SDS011;34713;50.038;20.000;2024-03-17T13:37:57;4.80;;;1.60;;
48897;SDS011;34713;50.038;20.000;2024-03-17T13:40:26;4.90;;;1.90;;
48897;SDS011;34713;50.038;20.000;2024-03-17T13:42:53;5.40;;;1.80;;
48897;SDS011;34713;50.038;20.000;2024-03-17T13:45:20;3.60;;;1.50;;
48897;SDS011;34713;50.038;20.000;2024-03-17T13:47:52;6.20;;;1.60;;
48897;SDS011;34713;50.038;20.000;2024-03-17T13:50:22;5.10;;;1.60;;
48897;SDS011;34713;50.038;20.000;2024-03-17T13:52:49;5.00;;;1.90;;
48897;SDS011;34713;50.038;20.000;2024-03-17T13:55:19;5.30;;;1.40;;
48897;SDS011;34713;50.038;20.000;2024-03-17T13:57:50;4.90;;;1.60;;
48897;SDS011;34713;50.038;20.000;2024-03-17T14:00:17;7.90;;;1.80;;
48897;SDS011;34713;50.038;20.000;2024-03-17T14:02:46;3.50;;;1.50;;
48897;SDS011;34713;50.038;20.000;2024-03-17T14:05:14;4.10;;;1.70;;
48897;SDS011;34713;50.038;20.000;2024-03-17T14:07:41;6.20;;;2.00;;
48897;SDS011;34713;50.038;20.000;2024-03-17T14:10:08;5.30;;;1.70;;
48897;SDS011;34713;50.038;20.000;2024-03-17T14:12:36;5.30;;;1.60;;
48897;SDS011;34713;50.038;20.000;2024-03-17T14:15:06;5.20;;;1.00;;
48897;SDS011;34713;50.038;20.000;2024-03-17T14:17:43;6.00;;;1.80;;
48897;SDS011;34713;50.038;20.000;2024-03-17T14:20:10;5.20;;;1.60;;
48897;SDS011;34713;50.038;20.000;2024-03-17T14:22:38;6.40;;;1.70;;
48897;SDS011;34713;50.038;20.000;2024-03-17T14:25:05;4.80;;;1.90;;
48897;SDS011;34713;50.038;20.000;2024-03-17T14:27:32;7.70;;;1.70;;
48897;SDS011;34713;50.038;20.000;2024-03-17T14:30:00;5.90;;;1.50;;
48897;SDS011;34713;50.038;20.000;2024-03-17T14:32:26;4.90;;;1.60;;
48897;SDS011;34713;50.038;20.000;2024-03-17T14:34:54;3.90;;;1.50;;
48897;SDS011;34713;50.038;20.000;2024-03-17T14:37:20;5.60;;;1.50;;
48897;SDS011;34713;50.038;20.000;2024-03-17T14:39:51;3.70;;;1.50;;
48897;SDS011;34713;50.038;20.000;2024-03-17T14:42:20;4.70;;;1.50;;
48897;SDS011;34713;50.038;20.000;2024-03-17T14:44:47;4.40;;;1.60;;
48897;SDS011;34713;50.038;20.000;2024-03-17T14:47:14;5.50;;;1.50;;
48897;SDS011;34713;50.038;20.000;2024-03-17T14:49:40;5.30;;;1.90;;
48897;SDS011;34713;50.038;20.000;2024-03-17T14:52:08;4.10;;;1.40;;
48897;SDS011;34713;50.038;20.000;2024-03-17T14:54:35;6.00;;;1.70;;
48897;SDS011;34713;50.038;20.000;2024-03-17T14:57:02;5.40;;;1.50;;
48897;SDS011;34713;50.038;20.000;2024-03-17T14:59:28;5.20;;;1.40;;
48897;SDS011;34713;50.038;20.000;2024-03-17T15:01:55;4.90;;;1.70;;
48897;SDS011;34713;50.038;20.000;2024-03-17T15:04:22;6.00;;;1.60;;
48897;SDS011;34713;50.038;20.000;2024-03-17T15:06:48;5.10;;;1.50;;
48897;SDS011;34713;50.038;20.000;2024-03-17T15:09:14;4.60;;;1.50;;